Time;durP1;ratioP1;P1;durP2;ratioP2;P2;SDS_P1;SDS_P2;PMS_P1;PMS_P2;Temp;Humidity;BMP_temperature;BMP_pressure;BME280_temperature;BME280_humidity;BME280_pressure;Samples;Min_cycle;Max_cycle;Signal;HPM_P1;HPM_P2
2023/09/07 00:02:05;;;;;;;6.20;4.10;;;;;;;;;;4927640;29;20196;-90
2023/09/07 00:05:17;;;;;;;10.73;4.43;;;;;;;;;;4930339;29;20281;-92
2023/09/07 00:08:29;;;;;;;7.72;4.25;;;;;;;;;;4928114;29;20711;-92
2023/09/07 00:11:41;;;;;;;8.50;3.78;;;;;;;;;;4928164;29;20240;-90
2023/09/07 00:14:53;;;;;;;6.38;4.25;;;;;;;;;;4936166;29;20196;-91
2023/09/07 00:18:06;;;;;;;7.85;4.55;;;;;;;;;;4927442;29;20204;-93
2023/09/07 00:21:17;;;;;;;5.57;4.03;;;;;;;;;;4932054;29;20219;-91
2023/09/07 00:24:29;;;;;;;5.53;3.88;;;;;;;;;;4947188;29;20223;-90
2023/09/07 00:27:42;;;;;;;7.35;4.18;;;;;;;;;;4947578;28;20561;-94
2023/09/07 00:30:54;;;;;;;7.22;4.32;;;;;;;;;;4945988;28;20183;-93
2023/09/07 00:34:05;;;;;;;9.88;4.65;;;;;;;;;;4946989;28;20199;-93
2023/09/07 00:37:17;;;;;;;10.57;4.03;;;;;;;;;;4944163;29;20242;-91
2023/09/07 00:40:28;;;;;;;7.32;4.57;;;;;;;;;;4926342;29;20188;-92
2023/09/07 00:43:41;;;;;;;8.68;4.07;;;;;;;;;;4927717;29;20579;-92
2023/09/07 00:46:53;;;;;;;6.95;4.43;;;;;;;;;;4927477;29;20253;-94
2023/09/07 00:50:06;;;;;;;8.40;4.30;;;;;;;;;;4927224;29;20200;-91
2023/09/07 00:53:19;;;;;;;6.72;4.13;;;;;;;;;;4931945;28;20250;-92
2023/09/07 00:56:31;;;;;;;8.98;4.40;;;;;;;;;;4945827;28;20223;-93
2023/09/07 00:59:47;;;;;;;9.20;4.45;;;;;;;;;;4945080;28;20210;-90
2023/09/07 01:02:58;;;;;;;8.77;4.82;;;;;;;;;;4948939;29;20327;-92
2023/09/07 01:06:14;;;;;;;7.32;4.60;;;;;;;;;;4946166;28;20239;-94
2023/09/07 01:09:26;;;;;;;9.77;4.50;;;;;;;;;;4946062;28;20223;-95
2023/09/07 01:12:37;;;;;;;7.30;4.35;;;;;;;;;;4946298;28;20224;-91
2023/09/07 01:15:51;;;;;;;11.43;4.93;;;;;;;;;;4946009;29;20289;-93
2023/09/07 01:19:04;;;;;;;12.55;4.65;;;;;;;;;;4946866;28;20191;-93
2023/09/07 01:22:18;;;;;;;8.00;4.80;;;;;;;;;;4945989;28;20300;-94
2023/09/07 01:25:31;;;;;;;6.82;4.20;;;;;;;;;;4934744;29;20222;-91
2023/09/07 01:28:43;;;;;;;7.00;4.35;;;;;;;;;;4943142;28;20191;-93
2023/09/07 01:31:55;;;;;;;9.38;4.50;;;;;;;;;;4944362;29;20187;-92
2023/09/07 01:35:08;;;;;;;7.40;4.25;;;;;;;;;;4944312;29;20184;-92
2023/09/07 01:38:21;;;;;;;6.38;3.95;;;;;;;;;;4944883;28;20555;-92
2023/09/07 01:41:34;;;;;;;6.10;3.65;;;;;;;;;;4943826;29;20849;-93
2023/09/07 01:44:46;;;;;;;7.63;4.00;;;;;;;;;;4946617;28;20192;-94
2023/09/07 01:48:00;;;;;;;7.45;4.10;;;;;;;;;;4945552;28;20676;-90
2023/09/07 01:51:11;;;;;;;8.00;4.10;;;;;;;;;;4946644;29;20268;-91
2023/09/07 01:54:24;;;;;;;8.98;4.30;;;;;;;;;;4947248;28;20196;-91
2023/09/07 01:57:36;;;;;;;6.97;4.18;;;;;;;;;;4945243;28;20215;-90
2023/09/07 02:00:48;;;;;;;6.95;3.85;;;;;;;;;;4928850;29;20200;-92
2023/09/07 02:03:59;;;;;;;6.47;3.90;;;;;;;;;;4925475;29;20188;-93
2023/09/07 02:07:11;;;;;;;8.18;4.20;;;;;;;;;;4924982;29;20199;-90
2023/09/07 02:10:24;;;;;;;8.88;3.90;;;;;;;;;;4927785;29;20196;-90
2023/09/07 02:13:36;;;;;;;7.68;4.32;;;;;;;;;;4930823;29;20192;-92
2023/09/07 02:16:50;;;;;;;9.35;4.15;;;;;;;;;;4956501;28;20222;-90
2023/09/07 02:23:28;;;;;;;6.10;4.15;;;;;;;;;;4969399;28;20206;-92
2023/09/07 02:26:45;;;;;;;9.38;4.40;;;;;;;;;;4962852;28;20206;-91
2023/09/07 02:29:56;;;;;;;10.00;4.30;;;;;;;;;;4958150;28;20190;-92
2023/09/07 02:33:07;;;;;;;7.85;4.47;;;;;;;;;;4944279;28;20205;-89
2023/09/07 02:36:21;;;;;;;9.20;4.10;;;;;;;;;;4948078;28;20222;-92
2023/09/07 02:39:33;;;;;;;7.97;4.20;;;;;;;;;;4945078;28;20196;-94
2023/09/07 02:42:46;;;;;;;9.77;4.32;;;;;;;;;;4947567;28;20240;-93
2023/09/07 02:45:58;;;;;;;6.75;4.15;;;;;;;;;;4947507;29;20219;-92
2023/09/07 02:49:10;;;;;;;7.80;4.28;;;;;;;;;;4949448;28;20238;-93
2023/09/07 02:52:22;;;;;;;12.05;4.32;;;;;;;;;;4951937;28;20191;-91
2023/09/07 02:55:35;;;;;;;6.55;4.10;;;;;;;;;;4949321;28;20207;-92
2023/09/07 02:58:49;;;;;;;10.07;4.22;;;;;;;;;;4949618;28;20565;-91
2023/09/07 03:02:01;;;;;;;7.20;4.10;;;;;;;;;;4948028;28;20294;-92
2023/09/07 03:05:13;;;;;;;7.65;4.22;;;;;;;;;;4948789;28;20328;-91
2023/09/07 03:08:26;;;;;;;9.15;4.03;;;;;;;;;;4948909;28;20234;-91
2023/09/07 03:11:38;;;;;;;8.82;3.90;;;;;;;;;;4948823;28;20200;-92
2023/09/07 03:14:51;;;;;;;8.15;4.72;;;;;;;;;;4949538;29;20183;-93
2023/09/07 03:18:04;;;;;;;9.70;4.47;;;;;;;;;;4938754;29;20247;-92
2023/09/07 03:21:16;;;;;;;6.78;4.15;;;;;;;;;;4929530;29;20208;-91
2023/09/07 03:24:28;;;;;;;7.95;4.35;;;;;;;;;;4928905;29;20683;-91
2023/09/07 03:27:40;;;;;;;10.02;4.60;;;;;;;;;;4929094;29;20204;-94
2023/09/07 03:30:56;;;;;;;7.00;4.40;;;;;;;;;;4929065;29;20196;-91
2023/09/07 03:34:08;;;;;;;7.72;3.90;;;;;;;;;;4940307;29;20268;-90
2023/09/07 03:37:20;;;;;;;7.28;4.40;;;;;;;;;;4947407;28;20310;-91
2023/09/07 03:40:32;;;;;;;10.13;4.57;;;;;;;;;;4928423;29;20290;-91
2023/09/07 03:43:43;;;;;;;9.05;4.55;;;;;;;;;;4930127;29;20216;-91
2023/09/07 03:46:56;;;;;;;7.05;4.47;;;;;;;;;;4928423;29;20192;-90
2023/09/07 03:50:09;;;;;;;7.45;4.38;;;;;;;;;;4935361;28;20218;-91
2023/09/07 03:53:20;;;;;;;9.00;4.55;;;;;;;;;;4946745;28;20195;-90
2023/09/07 03:56:32;;;;;;;8.20;4.30;;;;;;;;;;4946981;28;20219;-91
2023/09/07 03:59:43;;;;;;;7.70;4.28;;;;;;;;;;4947385;29;20345;-91
2023/09/07 04:02:57;;;;;;;10.80;4.78;;;;;;;;;;4945896;29;20219;-91
2023/09/07 04:06:10;;;;;;;8.45;4.47;;;;;;;;;;4947337;28;20227;-90
2023/09/07 04:09:21;;;;;;;6.35;4.05;;;;;;;;;;4949564;28;20312;-91
2023/09/07 04:12:34;;;;;;;7.57;4.45;;;;;;;;;;4950632;28;20198;-92
2023/09/07 04:15:46;;;;;;;9.30;4.60;;;;;;;;;;4957820;28;20194;-90
2023/09/07 04:19:01;;;;;;;5.88;3.80;;;;;;;;;;4969802;28;20675;-92
2023/09/07 04:22:13;;;;;;;9.13;4.57;;;;;;;;;;4931886;29;20207;-90
2023/09/07 04:25:24;;;;;;;8.68;4.75;;;;;;;;;;4930516;29;20204;-91
2023/09/07 04:28:36;;;;;;;9.13;4.20;;;;;;;;;;4948151;28;20899;-90
2023/09/07 04:31:48;;;;;;;7.22;4.43;;;;;;;;;;4949196;29;20211;-90
2023/09/07 04:35:01;;;;;;;9.43;4.90;;;;;;;;;;4951889;28;20191;-93
2023/09/07 04:38:13;;;;;;;11.82;4.78;;;;;;;;;;4938590;28;20235;-90
2023/09/07 04:41:27;;;;;;;8.90;4.72;;;;;;;;;;4929604;29;20275;-91
2023/09/07 04:44:41;;;;;;;9.93;4.40;;;;;;;;;;4963592;28;20214;-88
2023/09/07 04:47:52;;;;;;;8.63;4.78;;;;;;;;;;4968260;28;20186;-94
2023/09/07 04:51:07;;;;;;;8.68;4.45;;;;;;;;;;4968459;28;20258;-89
2023/09/07 04:54:19;;;;;;;10.85;4.30;;;;;;;;;;4956054;29;20202;-90
2023/09/07 04:57:32;;;;;;;8.70;4.93;;;;;;;;;;4968738;28;20226;-93
2023/09/07 05:00:45;;;;;;;7.50;4.50;;;;;;;;;;4969207;28;20565;-92
2023/09/07 05:03:56;;;;;;;9.60;4.75;;;;;;;;;;4960487;28;20203;-92
2023/09/07 05:07:12;;;;;;;11.98;5.00;;;;;;;;;;4950968;28;20199;-90
2023/09/07 05:10:24;;;;;;;12.18;4.90;;;;;;;;;;4951381;28;20183;-92
2023/09/07 05:13:39;;;;;;;12.27;4.78;;;;;;;;;;4949518;28;20192;-89
2023/09/07 05:16:52;;;;;;;8.32;4.85;;;;;;;;;;4949183;29;20305;-91
2023/09/07 05:20:05;;;;;;;11.68;5.32;;;;;;;;;;4948555;29;20258;-92
2023/09/07 05:23:19;;;;;;;18.35;5.38;;;;;;;;;;4945255;28;20243;-93
2023/09/07 05:26:31;;;;;;;8.90;5.68;;;;;;;;;;4927410;29;20249;-90
2023/09/07 05:29:43;;;;;;;11.32;5.68;;;;;;;;;;4947755;28;20263;-91
2023/09/07 05:32:55;;;;;;;9.50;5.05;;;;;;;;;;4947010;28;20219;-90
2023/09/07 05:36:07;;;;;;;11.80;5.57;;;;;;;;;;4961516;29;20203;-89
2023/09/07 05:39:21;;;;;;;6.70;4.55;;;;;;;;;;4961854;28;20217;-94
2023/09/07 05:42:45;;;;;;;6.93;3.97;;;;;;;;;;4934158;29;20289;-90
2023/09/07 05:45:58;;;;;;;8.35;3.95;;;;;;;;;;4953412;29;20199;-95
2023/09/07 05:49:10;;;;;;;10.15;4.32;;;;;;;;;;4950085;28;20214;-89
2023/09/07 05:52:23;;;;;;;9.95;4.72;;;;;;;;;;4948677;28;20190;-93
2023/09/07 05:55:50;;;;;;;9.50;4.80;;;;;;;;;;4951810;28;20235;-92
2023/09/07 05:59:05;;;;;;;10.50;4.90;;;;;;;;;;4951876;28;20211;-93
2023/09/07 06:02:22;;;;;;;10.75;4.72;;;;;;;;;;4950953;28;20284;-92
2023/09/07 06:05:35;;;;;;;15.25;4.47;;;;;;;;;;4947832;29;20285;-90
2023/09/07 06:08:48;;;;;;;10.65;4.25;;;;;;;;;;4949171;28;20218;-91
2023/09/07 06:12:02;;;;;;;9.38;4.35;;;;;;;;;;4949925;28;20565;-89
2023/09/07 06:15:16;;;;;;;8.13;4.15;;;;;;;;;;4950340;28;20208;-91
2023/09/07 06:18:28;;;;;;;10.98;4.55;;;;;;;;;;4952006;28;20299;-92
2023/09/07 06:21:39;;;;;;;8.38;4.10;;;;;;;;;;4952904;29;20199;-89
2023/09/07 06:24:51;;;;;;;7.78;4.40;;;;;;;;;;4953130;28;20195;-91
2023/09/07 06:28:05;;;;;;;56.28;7.00;;;;;;;;;;4953420;28;20206;-90
2023/09/07 06:31:19;;;;;;;9.20;3.63;;;;;;;;;;4952812;28;20199;-91
2023/09/07 06:34:32;;;;;;;9.20;4.10;;;;;;;;;;4953180;29;20183;-91
2023/09/07 06:37:44;;;;;;;10.45;4.00;;;;;;;;;;4951984;28;20794;-92
2023/09/07 06:40:59;;;;;;;7.82;3.70;;;;;;;;;;4952982;28;20235;-91
2023/09/07 06:44:11;;;;;;;9.65;3.92;;;;;;;;;;4952578;28;20196;-91
2023/09/07 06:47:25;;;;;;;5.55;2.70;;;;;;;;;;4948949;29;20211;-91
2023/09/07 06:50:36;;;;;;;15.35;3.20;;;;;;;;;;4947922;28;20195;-90
2023/09/07 06:53:50;;;;;;;8.50;3.33;;;;;;;;;;4949184;28;20294;-92
2023/09/07 06:57:02;;;;;;;5.28;2.92;;;;;;;;;;4949034;28;20282;-88
2023/09/07 07:00:15;;;;;;;8.55;3.33;;;;;;;;;;4947190;28;20650;-90
2023/09/07 07:03:29;;;;;;;10.18;3.55;;;;;;;;;;4951410;29;20215;-90
2023/09/07 07:06:41;;;;;;;6.95;3.20;;;;;;;;;;4947262;29;20191;-89
2023/09/07 07:09:53;;;;;;;5.25;3.40;;;;;;;;;;4947745;29;20218;-92
2023/09/07 07:13:05;;;;;;;7.93;3.38;;;;;;;;;;4945146;29;20311;-91
2023/09/07 07:16:18;;;;;;;7.13;3.13;;;;;;;;;;4946419;29;20235;-92
2023/09/07 07:19:30;;;;;;;7.53;3.08;;;;;;;;;;4947519;29;20196;-88
2023/09/07 07:22:42;;;;;;;6.68;3.00;;;;;;;;;;4947229;28;20202;-91
2023/09/07 07:29:20;;;;;;;7.65;3.10;;;;;;;;;;4945617;28;20553;-91
2023/09/07 07:32:32;;;;;;;8.13;3.08;;;;;;;;;;4949261;28;20199;-89
2023/09/07 07:35:46;;;;;;;6.78;3.20;;;;;;;;;;4952836;28;20756;-89
2023/09/07 07:38:57;;;;;;;6.93;2.78;;;;;;;;;;4951085;29;20203;-88
2023/09/07 07:42:10;;;;;;;5.35;2.40;;;;;;;;;;4953354;29;20212;-88
2023/09/07 07:45:22;;;;;;;7.47;3.05;;;;;;;;;;4952027;29;20190;-90
2023/09/07 07:48:35;;;;;;;8.25;3.00;;;;;;;;;;4952847;28;20203;-91
2023/09/07 07:51:49;;;;;;;5.45;2.97;;;;;;;;;;4951534;28;20199;-88
2023/09/07 07:55:01;;;;;;;6.15;2.60;;;;;;;;;;4953226;28;20191;-90
2023/09/07 07:58:13;;;;;;;6.45;2.80;;;;;;;;;;4953610;28;20247;-91
2023/09/07 08:01:26;;;;;;;3.63;2.63;;;;;;;;;;4952583;28;20207;-88
2023/09/07 08:04:39;;;;;;;6.13;2.75;;;;;;;;;;4952705;29;20215;-89
2023/09/07 08:07:53;;;;;;;4.05;2.85;;;;;;;;;;4954680;28;20558;-90
2023/09/07 08:11:05;;;;;;;4.40;3.03;;;;;;;;;;4954435;28;20198;-88
2023/09/07 08:14:19;;;;;;;3.72;2.72;;;;;;;;;;4953017;28;20194;-92
2023/09/07 08:17:32;;;;;;;7.03;2.92;;;;;;;;;;4952172;29;20232;-89
2023/09/07 08:20:43;;;;;;;6.35;2.85;;;;;;;;;;4949490;29;20226;-90
2023/09/07 08:23:57;;;;;;;4.03;2.70;;;;;;;;;;4948407;29;20260;-91
2023/09/07 08:27:11;;;;;;;4.25;2.60;;;;;;;;;;4949006;28;20740;-92
2023/09/07 08:30:25;;;;;;;3.33;2.45;;;;;;;;;;4947312;29;20198;-93
2023/09/07 08:33:40;;;;;;;3.83;2.50;;;;;;;;;;4946755;28;20190;-92
2023/09/07 08:36:54;;;;;;;4.47;2.60;;;;;;;;;;4948941;28;20198;-90
2023/09/07 08:40:23;;;;;;;4.78;2.70;;;;;;;;;;4951384;28;20296;-90
2023/09/07 08:43:37;;;;;;;5.75;3.30;;;;;;;;;;4950412;28;20186;-89
2023/09/07 08:46:51;;;;;;;6.90;2.63;;;;;;;;;;4946933;28;20304;-90
2023/09/07 08:50:03;;;;;;;4.65;2.47;;;;;;;;;;4949593;29;20274;-91
2023/09/07 08:53:15;;;;;;;5.85;2.28;;;;;;;;;;4949987;28;20195;-89
2023/09/07 08:56:30;;;;;;;3.33;2.40;;;;;;;;;;4950323;29;20561;-92
2023/09/07 08:59:41;;;;;;;3.53;2.30;;;;;;;;;;4947142;29;20206;-93
2023/09/07 09:02:54;;;;;;;7.35;2.50;;;;;;;;;;4946760;29;20202;-89
2023/09/07 09:06:06;;;;;;;3.95;2.35;;;;;;;;;;4945900;29;20191;-92
2023/09/07 09:09:24;;;;;;;4.70;2.13;;;;;;;;;;4944813;29;20210;-92
2023/09/07 09:12:36;;;;;;;4.07;2.50;;;;;;;;;;4945638;29;20226;-91
2023/09/07 09:15:49;;;;;;;6.05;2.33;;;;;;;;;;4947417;29;20195;-90
2023/09/07 09:19:01;;;;;;;3.35;1.95;;;;;;;;;;4945446;29;20257;-91
2023/09/07 09:22:14;;;;;;;3.38;2.20;;;;;;;;;;4945760;29;20210;-92
2023/09/07 09:25:26;;;;;;;3.55;2.42;;;;;;;;;;4945869;29;20654;-91
2023/09/07 09:28:42;;;;;;;4.80;2.00;;;;;;;;;;4944505;29;20197;-90
2023/09/07 09:32:04;;;;;;;3.83;2.30;;;;;;;;;;4944656;29;20261;-92
2023/09/07 09:35:18;;;;;;;3.78;2.47;;;;;;;;;;4947952;29;20195;-92
2023/09/07 09:38:31;;;;;;;4.88;2.20;;;;;;;;;;4949551;29;20215;-91
2023/09/07 09:41:43;;;;;;;8.10;2.10;;;;;;;;;;4946343;29;20210;-89
2023/09/07 09:44:58;;;;;;;3.10;1.98;;;;;;;;;;4945566;29;20692;-91
2023/09/07 09:48:10;;;;;;;4.03;2.08;;;;;;;;;;4945987;28;20195;-90
2023/09/07 09:51:22;;;;;;;6.07;3.47;;;;;;;;;;4947165;28;20310;-92
2023/09/07 09:54:37;;;;;;;9.38;5.30;;;;;;;;;;4946643;28;20219;-90
2023/09/07 09:57:50;;;;;;;3.30;2.10;;;;;;;;;;4946264;29;20214;-91
2023/09/07 10:01:05;;;;;;;3.50;2.03;;;;;;;;;;4948482;28;20186;-91
2023/09/07 10:04:19;;;;;;;5.82;2.70;;;;;;;;;;4948382;28;20194;-94
2023/09/07 10:07:43;;;;;;;2.97;2.40;;;;;;;;;;4948409;29;20190;-92
2023/09/07 10:10:55;;;;;;;5.45;2.35;;;;;;;;;;4946823;28;20315;-91
2023/09/07 10:14:08;;;;;;;2.83;2.30;;;;;;;;;;4947051;28;20219;-92
2023/09/07 10:17:25;;;;;;;4.13;2.40;;;;;;;;;;4947159;28;20670;-92
2023/09/07 10:20:49;;;;;;;5.55;2.30;;;;;;;;;;4945907;28;20190;-90
2023/09/07 10:24:01;;;;;;;4.20;2.50;;;;;;;;;;4950760;28;20215;-89
2023/09/07 10:27:13;;;;;;;8.85;2.90;;;;;;;;;;4948374;29;20207;-91
2023/09/07 10:30:24;;;;;;;7.25;2.33;;;;;;;;;;4948801;28;20270;-91
2023/09/07 10:33:38;;;;;;;4.65;1.90;;;;;;;;;;4950603;28;20310;-91
2023/09/07 10:36:52;;;;;;;5.38;2.58;;;;;;;;;;4951652;28;20203;-89
2023/09/07 10:40:09;;;;;;;3.08;2.10;;;;;;;;;;4951112;28;20533;-89
2023/09/07 10:43:21;;;;;;;4.10;2.60;;;;;;;;;;4951869;28;20202;-91
2023/09/07 10:46:33;;;;;;;3.15;2.42;;;;;;;;;;4949438;28;20252;-93
2023/09/07 10:49:47;;;;;;;3.63;2.47;;;;;;;;;;4949610;28;20202;-90
2023/09/07 10:53:00;;;;;;;3.95;2.53;;;;;;;;;;4950468;28;20194;-90
2023/09/07 10:56:12;;;;;;;4.10;2.22;;;;;;;;;;4950950;28;20203;-91
2023/09/07 10:59:23;;;;;;;3.90;2.13;;;;;;;;;;4948931;28;20702;-92
2023/09/07 11:02:39;;;;;;;3.00;2.40;;;;;;;;;;4931836;29;20199;-93
2023/09/07 11:05:53;;;;;;;4.95;2.42;;;;;;;;;;4954939;29;20191;-91
2023/09/07 11:09:08;;;;;;;3.25;2.30;;;;;;;;;;4953851;29;20287;-92
2023/09/07 11:12:22;;;;;;;4.28;2.22;;;;;;;;;;4933939;29;20252;-92
2023/09/07 11:15:35;;;;;;;4.32;2.47;;;;;;;;;;4941259;28;20214;-92
2023/09/07 11:19:08;;;;;;;4.75;2.97;;;;;;;;;;4936857;29;20227;-90
2023/09/07 11:22:22;;;;;;;4.32;2.28;;;;;;;;;;4934780;29;20214;-92
2023/09/07 11:25:37;;;;;;;4.25;2.50;;;;;;;;;;4945063;28;20238;-90
2023/09/07 11:28:50;;;;;;;3.50;2.30;;;;;;;;;;4943434;29;20199;-92
2023/09/07 11:32:13;;;;;;;2.78;2.20;;;;;;;;;;4946209;29;20218;-90
2023/09/07 11:35:24;;;;;;;4.05;2.60;;;;;;;;;;4958034;28;20261;-91
2023/09/07 11:38:39;;;;;;;3.83;2.50;;;;;;;;;;4930150;29;20214;-94
2023/09/07 11:41:50;;;;;;;5.95;2.33;;;;;;;;;;4939366;29;20199;-93
2023/09/07 11:45:03;;;;;;;3.95;2.50;;;;;;;;;;4930923;29;20228;-90
2023/09/07 11:48:15;;;;;;;4.10;2.40;;;;;;;;;;4934710;29;20258;-93
2023/09/07 11:51:26;;;;;;;3.88;2.20;;;;;;;;;;4972374;29;20189;-93
2023/09/07 11:54:40;;;;;;;3.22;2.35;;;;;;;;;;4970318;28;20193;-92
2023/09/07 11:57:52;;;;;;;3.47;2.35;;;;;;;;;;4971149;29;20206;-92
2023/09/07 12:01:04;;;;;;;4.30;2.47;;;;;;;;;;4971423;28;20197;-91
2023/09/07 12:04:16;;;;;;;3.97;2.95;;;;;;;;;;4970606;29;20190;-92
2023/09/07 12:07:27;;;;;;;3.38;2.30;;;;;;;;;;4952983;29;20346;-93
2023/09/07 12:10:41;;;;;;;2.95;2.10;;;;;;;;;;4965752;28;20278;-93
2023/09/07 12:13:53;;;;;;;5.65;2.70;;;;;;;;;;4971016;28;20193;-93
2023/09/07 12:17:06;;;;;;;6.57;2.45;;;;;;;;;;4971439;28;20178;-90
2023/09/07 12:20:18;;;;;;;3.95;2.33;;;;;;;;;;4970048;28;20213;-92
2023/09/07 12:23:34;;;;;;;4.78;2.20;;;;;;;;;;4970031;29;20213;-90
2023/09/07 12:26:48;;;;;;;3.42;2.17;;;;;;;;;;4955223;28;20254;-92
2023/09/07 12:30:00;;;;;;;5.65;2.80;;;;;;;;;;4946269;29;20218;-92
2023/09/07 12:33:12;;;;;;;5.07;2.45;;;;;;;;;;4941512;28;20247;-92
2023/09/07 12:36:23;;;;;;;5.75;2.97;;;;;;;;;;4933238;29;20211;-92
2023/09/07 12:39:35;;;;;;;7.80;2.70;;;;;;;;;;4952479;29;20239;-91
2023/09/07 12:42:49;;;;;;;2.83;2.20;;;;;;;;;;4949811;29;20222;-92
2023/09/07 12:46:01;;;;;;;3.60;2.50;;;;;;;;;;4963524;28;20210;-90
2023/09/07 12:49:15;;;;;;;4.97;2.60;;;;;;;;;;4953509;28;20296;-89
2023/09/07 12:52:26;;;;;;;4.10;2.45;;;;;;;;;;4962527;28;20190;-90
2023/09/07 12:55:38;;;;;;;4.00;2.30;;;;;;;;;;4959767;29;20179;-89
2023/09/07 12:58:54;;;;;;;2.92;2.15;;;;;;;;;;4951992;28;20234;-91
2023/09/07 13:02:06;;;;;;;3.53;2.38;;;;;;;;;;4947970;28;20211;-91
2023/09/07 13:05:17;;;;;;;5.22;2.20;;;;;;;;;;4939922;29;20214;-92
2023/09/07 13:08:29;;;;;;;3.75;2.20;;;;;;;;;;4931728;29;20267;-93
2023/09/07 13:11:41;;;;;;;4.72;2.30;;;;;;;;;;4944958;28;20685;-90
2023/09/07 13:14:59;;;;;;;6.93;2.15;;;;;;;;;;4952047;28;20194;-90
2023/09/07 13:18:10;;;;;;;4.97;2.20;;;;;;;;;;4960255;28;20277;-92
2023/09/07 13:21:21;;;;;;;3.38;1.95;;;;;;;;;;4968498;28;20181;-89
2023/09/07 13:24:33;;;;;;;2.28;1.73;;;;;;;;;;4953374;28;20211;-89
2023/09/07 13:27:49;;;;;;;4.07;2.13;;;;;;;;;;4959910;29;20206;-89
2023/09/07 13:31:02;;;;;;;2.80;2.08;;;;;;;;;;4947660;29;20557;-93
2023/09/07 13:34:14;;;;;;;3.85;1.80;;;;;;;;;;4970236;28;20214;-92
2023/09/07 13:37:25;;;;;;;6.07;2.00;;;;;;;;;;4967147;28;20286;-91
2023/09/07 13:40:36;;;;;;;2.65;1.98;;;;;;;;;;4951275;28;20230;-89
2023/09/07 13:43:49;;;;;;;5.35;2.10;;;;;;;;;;4952962;28;20206;-90
2023/09/07 13:47:02;;;;;;;4.82;2.58;;;;;;;;;;4951758;28;20224;-90
2023/09/07 13:50:14;;;;;;;2.92;2.10;;;;;;;;;;4950390;29;20194;-92
2023/09/07 13:53:26;;;;;;;4.82;2.40;;;;;;;;;;4950380;29;20246;-92
2023/09/07 13:56:38;;;;;;;3.50;2.10;;;;;;;;;;4930917;29;20277;-88
2023/09/07 13:59:50;;;;;;;2.83;2.00;;;;;;;;;;4932005;29;20218;-89
2023/09/07 14:03:04;;;;;;;3.28;2.00;;;;;;;;;;4932712;29;20274;-91
2023/09/07 14:09:41;;;;;;;3.33;2.08;;;;;;;;;;4954821;28;20273;-93
2023/09/07 14:12:53;;;;;;;3.25;2.08;;;;;;;;;;4970879;28;20249;-93
2023/09/07 14:16:07;;;;;;;3.47;1.83;;;;;;;;;;4960733;28;20193;-91
2023/09/07 14:19:20;;;;;;;2.28;1.90;;;;;;;;;;4959907;29;20230;-90
2023/09/07 14:22:32;;;;;;;5.65;1.90;;;;;;;;;;4945581;28;20218;-92
2023/09/07 14:25:45;;;;;;;3.30;1.80;;;;;;;;;;4930358;29;20187;-94
2023/09/07 14:28:56;;;;;;;3.00;2.13;;;;;;;;;;4946013;29;20295;-92
2023/09/07 14:32:09;;;;;;;2.75;1.73;;;;;;;;;;4941415;29;20259;-91
2023/09/07 14:35:22;;;;;;;2.47;1.80;;;;;;;;;;4946207;29;20219;-90
2023/09/07 14:38:40;;;;;;;4.10;2.20;;;;;;;;;;4932881;29;20243;-93
2023/09/07 14:41:53;;;;;;;3.35;1.90;;;;;;;;;;4953809;29;20198;-92
2023/09/07 14:45:05;;;;;;;2.88;2.13;;;;;;;;;;4963986;29;20247;-93
2023/09/07 14:48:17;;;;;;;2.70;1.80;;;;;;;;;;4944661;29;20198;-91
2023/09/07 14:51:30;;;;;;;3.45;2.15;;;;;;;;;;4973550;28;20186;-92
2023/09/07 14:54:43;;;;;;;3.38;1.92;;;;;;;;;;4944058;29;20231;-90
2023/09/07 14:57:55;;;;;;;3.80;2.20;;;;;;;;;;4966547;28;20276;-90
2023/09/07 15:01:08;;;;;;;3.40;2.10;;;;;;;;;;4971315;28;20234;-91
2023/09/07 15:04:20;;;;;;;5.03;1.90;;;;;;;;;;4971468;28;20195;-89
2023/09/07 15:07:33;;;;;;;4.97;2.20;;;;;;;;;;4972429;28;20665;-89
2023/09/07 15:10:45;;;;;;;3.85;2.08;;;;;;;;;;4970853;28;20287;-89
2023/09/07 15:13:56;;;;;;;3.42;1.88;;;;;;;;;;4975342;28;20201;-92
2023/09/07 15:17:08;;;;;;;4.65;2.05;;;;;;;;;;4971946;29;20182;-89
2023/09/07 15:20:20;;;;;;;4.07;1.83;;;;;;;;;;4973435;29;20222;-91
2023/09/07 15:23:36;;;;;;;3.75;2.33;;;;;;;;;;4967920;28;20294;-91
2023/09/07 15:26:47;;;;;;;3.92;2.33;;;;;;;;;;4969430;29;20189;-90
2023/09/07 15:29:58;;;;;;;3.22;2.20;;;;;;;;;;4971150;28;20181;-90
2023/09/07 15:33:10;;;;;;;4.90;1.80;;;;;;;;;;4970665;28;20633;-92
2023/09/07 15:36:22;;;;;;;8.88;2.60;;;;;;;;;;4971953;29;20207;-89
2023/09/07 15:39:36;;;;;;;4.32;2.45;;;;;;;;;;4972169;28;20262;-92
2023/09/07 15:42:49;;;;;;;3.00;2.15;;;;;;;;;;4957198;28;20211;-89
2023/09/07 15:46:00;;;;;;;3.85;2.30;;;;;;;;;;4952098;29;20209;-91
2023/09/07 15:49:12;;;;;;;9.00;1.80;;;;;;;;;;4953739;28;20230;-93
2023/09/07 15:52:24;;;;;;;4.60;2.50;;;;;;;;;;4955284;28;20202;-92
2023/09/07 15:55:39;;;;;;;4.07;2.40;;;;;;;;;;4954046;28;20673;-92
2023/09/07 15:58:52;;;;;;;5.00;2.42;;;;;;;;;;4953973;28;20260;-92
2023/09/07 16:02:03;;;;;;;9.63;2.50;;;;;;;;;;4952677;28;20286;-93
2023/09/07 16:05:15;;;;;;;4.95;2.40;;;;;;;;;;4954425;28;20191;-93
2023/09/07 16:08:28;;;;;;;4.15;2.60;;;;;;;;;;4954683;28;20210;-94
2023/09/07 16:11:41;;;;;;;5.18;3.50;;;;;;;;;;4954086;28;20207;-94
2023/09/07 16:14:54;;;;;;;7.28;2.78;;;;;;;;;;4954507;28;20195;-92
2023/09/07 16:18:07;;;;;;;4.72;2.70;;;;;;;;;;4956204;28;20666;-93
2023/09/07 16:21:19;;;;;;;4.38;2.60;;;;;;;;;;4953138;28;20226;-92
2023/09/07 16:24:32;;;;;;;4.20;2.55;;;;;;;;;;4952513;28;20187;-93
2023/09/07 16:27:47;;;;;;;6.35;2.70;;;;;;;;;;4949458;28;20187;-93
2023/09/07 16:34:24;;;;;;;4.03;2.40;;;;;;;;;;4948809;28;20175;-91
2023/09/07 16:37:38;;;;;;;10.98;3.97;;;;;;;;;;4950799;28;20247;-93
2023/09/07 16:40:51;;;;;;;5.32;2.70;;;;;;;;;;4947386;28;20262;-92
2023/09/07 16:44:04;;;;;;;5.40;3.05;;;;;;;;;;4954382;28;20172;-92
2023/09/07 16:47:16;;;;;;;7.07;3.55;;;;;;;;;;4952917;29;20195;-91
2023/09/07 16:50:28;;;;;;;8.98;4.07;;;;;;;;;;4953463;28;20203;-93
2023/09/07 16:53:40;;;;;;;9.25;3.65;;;;;;;;;;4954132;28;20190;-91
2023/09/07 16:56:52;;;;;;;9.55;4.28;;;;;;;;;;4952565;28;20195;-93
2023/09/07 17:00:07;;;;;;;8.60;4.00;;;;;;;;;;4951692;28;20207;-92
2023/09/07 17:03:21;;;;;;;8.23;3.45;;;;;;;;;;4954232;28;20195;-92
2023/09/07 17:06:32;;;;;;;8.25;3.10;;;;;;;;;;4952040;28;20191;-93
2023/09/07 17:09:45;;;;;;;5.00;2.72;;;;;;;;;;4952971;28;20304;-94
2023/09/07 17:12:57;;;;;;;5.13;2.67;;;;;;;;;;4952035;28;20179;-90
2023/09/07 17:16:11;;;;;;;7.35;2.63;;;;;;;;;;4950652;28;20214;-93
2023/09/07 17:19:25;;;;;;;5.80;2.47;;;;;;;;;;4951953;28;20271;-94
2023/09/07 17:22:38;;;;;;;5.45;2.53;;;;;;;;;;4951967;29;20199;-93
2023/09/07 17:25:49;;;;;;;4.78;2.67;;;;;;;;;;4952483;28;20269;-91
2023/09/07 17:29:01;;;;;;;4.47;2.90;;;;;;;;;;4953926;28;20179;-93
2023/09/07 17:32:15;;;;;;;8.70;2.95;;;;;;;;;;4952661;28;20235;-93
2023/09/07 17:35:27;;;;;;;5.45;3.13;;;;;;;;;;4953769;28;20191;-93
2023/09/07 17:38:38;;;;;;;4.97;2.85;;;;;;;;;;4953524;28;20178;-94
2023/09/07 17:41:51;;;;;;;8.05;3.28;;;;;;;;;;4952735;28;20218;-91
2023/09/07 17:45:03;;;;;;;6.05;3.20;;;;;;;;;;4954064;28;20183;-88
2023/09/07 17:48:16;;;;;;;11.40;3.15;;;;;;;;;;4954956;28;20182;-91
2023/09/07 17:51:30;;;;;;;9.95;4.18;;;;;;;;;;4956029;28;20190;-92
2023/09/07 17:54:43;;;;;;;8.68;3.72;;;;;;;;;;4954428;28;20248;-93
2023/09/07 17:57:56;;;;;;;9.13;3.65;;;;;;;;;;4953023;28;20191;-92
2023/09/07 18:01:12;;;;;;;12.15;3.55;;;;;;;;;;4954326;28;20219;-93
2023/09/07 18:04:28;;;;;;;7.43;3.63;;;;;;;;;;4953077;28;20232;-94
2023/09/07 18:07:44;;;;;;;6.05;3.40;;;;;;;;;;4955429;28;20228;-93
2023/09/07 18:10:56;;;;;;;12.38;4.35;;;;;;;;;;4953806;28;20195;-94
2023/09/07 18:14:09;;;;;;;6.40;3.50;;;;;;;;;;4957556;28;20481;-95
2023/09/07 18:17:26;;;;;;;8.98;3.67;;;;;;;;;;4958998;28;20240;-93
2023/09/07 18:24:08;;;;;;;7.97;4.00;;;;;;;;;;4957411;28;20194;-92
2023/09/07 18:27:20;;;;;;;7.93;3.63;;;;;;;;;;4956619;28;20186;-92
2023/09/07 18:30:32;;;;;;;7.47;4.20;;;;;;;;;;4955962;28;20195;-93
2023/09/07 18:33:44;;;;;;;7.82;4.35;;;;;;;;;;4954236;28;20191;-92
2023/09/07 18:37:06;;;;;;;5.78;4.00;;;;;;;;;;4955160;28;20212;-93
2023/09/07 18:40:17;;;;;;;7.97;4.10;;;;;;;;;;4956004;28;20218;-91
2023/09/07 18:43:30;;;;;;;8.00;4.30;;;;;;;;;;4957148;28;20195;-93
2023/09/07 18:46:42;;;;;;;10.15;4.72;;;;;;;;;;4955428;28;20192;-93
2023/09/07 18:49:54;;;;;;;6.68;3.72;;;;;;;;;;4956268;28;20257;-93
2023/09/07 18:56:50;;;;;;;12.10;3.78;;;;;;;;;;4956918;28;20187;-93
2023/09/07 19:00:06;;;;;;;6.95;3.95;;;;;;;;;;4956701;28;20212;-94
2023/09/07 19:03:19;;;;;;;7.75;3.83;;;;;;;;;;4956374;28;20203;-94
2023/09/07 19:06:32;;;;;;;6.43;3.63;;;;;;;;;;4958755;28;20191;-92
2023/09/07 19:09:51;;;;;;;7.80;4.10;;;;;;;;;;4955469;28;20219;-91
2023/09/07 19:13:05;;;;;;;7.95;4.88;;;;;;;;;;4956127;28;20298;-94
2023/09/07 19:16:21;;;;;;;8.93;4.65;;;;;;;;;;4955860;28;20184;-91
2023/09/07 19:19:33;;;;;;;8.25;3.83;;;;;;;;;;4955359;28;20565;-91
2023/09/07 19:22:44;;;;;;;7.85;4.60;;;;;;;;;;4954339;29;20228;-94
2023/09/07 19:25:56;;;;;;;8.98;3.95;;;;;;;;;;4955283;29;20183;-92
2023/09/07 19:29:10;;;;;;;5.28;3.90;;;;;;;;;;4956387;28;20203;-92
2023/09/07 19:32:24;;;;;;;8.73;4.50;;;;;;;;;;4955180;29;20275;-93
2023/09/07 19:35:36;;;;;;;7.07;3.90;;;;;;;;;;4955305;28;20239;-92